createdAt,value
2019-05-01T22:39:16.487Z,1002.4
2019-05-01T22:40:18.599Z,1002.3
2019-05-01T22:41:20.954Z,1002.3
2019-05-01T22:42:23.043Z,1002.3
2019-05-01T22:43:25.165Z,1002.3
2019-05-01T22:44:27.542Z,1002.3
2019-05-01T22:45:29.664Z,1002.3
2019-05-01T22:46:38.925Z,1002.2
2019-05-01T22:47:50.704Z,1002.3
2019-05-01T22:48:53.987Z,1002.2
2019-05-01T22:49:56.072Z,1002.1
2019-05-01T22:50:58.220Z,1002.2
2019-05-01T22:52:01.143Z,1002.2
2019-05-01T22:53:12.920Z,1002.3
2019-05-01T22:54:16.202Z,1002.1
2019-05-01T22:55:25.548Z,1002.2
2019-05-01T22:56:29.128Z,1002.1
2019-05-01T22:57:31.271Z,1002.2
2019-05-01T22:58:33.388Z,1002.1
2019-05-01T22:59:35.849Z,1002.1
2019-05-01T23:00:38.073Z,1002.2
2019-05-01T23:01:40.270Z,1002.1
2019-05-01T23:02:42.419Z,1002.1
2019-05-01T23:03:44.558Z,1002
2019-05-01T23:04:52.005Z,1002.1
2019-05-01T23:05:55.179Z,1002.1
2019-05-01T23:06:57.265Z,1002.1
2019-05-01T23:08:00.045Z,1002
2019-05-01T23:09:02.449Z,1002.1
2019-05-01T23:10:05.120Z,1002.1
2019-05-01T23:11:20.603Z,1002.1
2019-05-01T23:12:23.736Z,1002
2019-05-01T23:13:25.998Z,1002
2019-05-01T23:14:28.251Z,1002
2019-05-01T23:15:31.261Z,1002
2019-05-01T23:16:33.364Z,1002
2019-05-01T23:17:40.785Z,1001.9
2019-05-01T23:18:51.798Z,1002
2019-05-01T23:20:03.892Z,1001.9
2019-05-01T23:21:14.395Z,1001.8
2019-05-01T23:22:18.053Z,1001.9
2019-05-01T23:23:20.541Z,1001.9
2019-05-01T23:24:22.638Z,1001.9
2019-05-01T23:25:24.786Z,1001.9
2019-05-01T23:26:27.290Z,1001.9
2019-05-01T23:27:31.207Z,1001.8
2019-05-01T23:28:39.704Z,1001.8
2019-05-01T23:29:42.889Z,1001.8
2019-05-01T23:30:44.958Z,1001.9
2019-05-01T23:31:47.049Z,1001.8
2019-05-01T23:32:49.164Z,1001.8
2019-05-01T23:33:52.140Z,1001.8
2019-05-01T23:34:54.232Z,1001.8
2019-05-01T23:35:56.302Z,1001.8
2019-05-01T23:36:58.368Z,1001.8
2019-05-01T23:38:00.519Z,1001.9
2019-05-01T23:39:02.881Z,1001.8
2019-05-01T23:40:05.061Z,1001.8
2019-05-01T23:41:07.151Z,1001.8
2019-05-01T23:42:09.235Z,1001.8
2019-05-01T23:43:11.646Z,1001.7
2019-05-01T23:44:13.731Z,1001.8
2019-05-01T23:45:15.811Z,1001.7
2019-05-01T23:46:17.877Z,1001.6
2019-05-01T23:47:19.966Z,1001.6
2019-05-01T23:48:22.015Z,1001.7
2019-05-01T23:49:24.099Z,1001.6
2019-05-01T23:50:26.171Z,1001.6
2019-05-01T23:51:29.879Z,1001.5
2019-05-01T23:52:38.599Z,1001.6
2019-05-01T23:53:49.319Z,1001.6
2019-05-01T23:54:51.532Z,1001.6
2019-05-01T23:55:59.928Z,1001.6
2019-05-01T23:57:03.913Z,1001.5
2019-05-01T23:58:05.983Z,1001.5
2019-05-01T23:59:08.438Z,1001.5
